Gainesville, AL

3:17 AM CDT on July 05, 2015 (GMT -0500)
Meridian Naval Air Station | | Change Station
CLOSE
Current Station
Airport
Location: Meridian NAS,
Elevation: 318 ft
Nearby Weather Stations

Elev 318 ft 32.55 °N, 88.56 °W | Updated 21 minutes ago

Partly Cloudy
Partly Cloudy
71 °F
Feels Like 71 °F
N
4
Wind Variable Wind from NE

Today
High -- | Low -- °F
--% Chance of Precip.
Yesterday
High -- | Low -- °F
Precip. -- in
5:49 AM 8:04 PM
Waning Gibbous, 86% visible
Pressure 30.09 in
Visibility 10.0 miles
Clouds Mostly Cloudy 4300 ft
Mostly Cloudy 6000 ft
Mostly Cloudy 12000 ft
Dew Point 69 °F
Humidity 93%
Rainfall 0.00 in
Snow Depth Not available.
UV 0 out of 12
Pollen .50 out of 12
Air Quality Not available.
Flu Activity Not available.
METAR KNMM 050756Z AUTO 04003KT 10SM BKN043 BKN060 BKN120 22/21 A3007 RMK AO2 SLP190 T02170206 $

More Conditions Fewer Conditions

Pressure 30.09 in
Visibility 10.0 miles
Clouds Mostly Cloudy 4300 ft
Mostly Cloudy 6000 ft
Mostly Cloudy 12000 ft
Dew Point 69 °F
Humidity 93%
Rainfall 0.00 in
Snow Depth Not available.
UV 0 out of 12
Pollen .50 out of 12
Air Quality Not available.
Flu Activity Not available.
METAR KNMM 050756Z AUTO 04003KT 10SM BKN043 BKN060 BKN120 22/21 A3007 RMK AO2 SLP190 T02170206 $

More Conditions Fewer Conditions

10-Day Weather Forecast

×

Almanac

Astronomy

Jul. 05, 2015 Rise Set
Actual Time
Civil Twilight
Nautical Twilight
Astronomical Twilight
Moon
Length of Visible Light
Length of Day
Tomorrow will be .
, % of the Moon is Illuminated

Today's Extremes

State Highs State Lows

Community

WunderPhotos

Upload Photos

1,835,215 photos uploaded!

WunderBlogs® & News

Nearby

Air Quality

  Air Quality AQ Index Pollutant
Not available.

Snow Depth

Station Depth Elevation

Earthquake Activity

City Distance Mag. Time & Date
Minimum magnitude displayed is 2.5.

Coastal Water Temperatures

Place Temperature

Stations

Nearby Weather Stations

Station Location Temp. Windchill Dew Point Humidity Wind Precip. Elev Updated Type